Upstream stations:
Downstream station:
SHEF ID: BRIO2 Canadian River at Bridgeport, OK
STATION TYPE:
Regulating: Stage = 15.00, Flow = 8545
STAGE RIV-FLOW
ft cfs
Ccp-Rev Ccp-Rev
(US/Central)
05/14 00:00 12.60 2190
05/14 01:00 12.58 2161
05/14 02:00 12.57 2146
05/14 03:00 12.57 2146
05/14 04:00 12.54 2103
05/14 05:00 12.53 2089
05/14 06:00 12.55 2117
05/14 07:00 13.15 3111
05/14 08:00 13.11 3036
05/14 09:00 12.97 2785
05/14 10:00 12.93 2716
05/14 11:00 12.90 2665
05/14 12:00 12.87 2615
05/14 13:00 12.86 2598
05/14 14:00 12.83 2548
05/14 15:00 12.82 2532
05/14 16:00 12.80 2500
05/14 17:00 12.80 2500
05/14 18:00 12.80 2500
05/14 19:00 12.76 2435
05/14 20:00 9.83 119
05/14 21:00 12.64 2250
05/14 22:00 9.81 113
05/14 23:00 ---- ----